Tuesday, September 18, 2018, 11:12 PM EDT
Back to Local

KBGR, Bangor Int'l Airport

Location: Bangor, ME, United States Lat: 44.8
Local Time: 11:12 PM EDT ( 3:12 GMT) Lon: -68.817
Time Zone: US/Eastern Elev: 193 ft

Show me the last for .
Show Decoded

2018-09-18 22:53 METAR KBGR 190253Z 01011KT 10SM BKN007 OVC013 14/13 A2986 RMK AO2 RAE07 CIG
                 006V012 SLP108 P0000 60006 T01390128 51029 =
2018-09-18 21:53 METAR KBGR 190153Z 01011KT 10SM -RA OVC006 14/13 A2984 RMK AO2 CIG 005V011
                 SLP102 P0001 T01390133 =
2018-09-18 20:53 METAR KBGR 190053Z 36013KT 8SM -RA OVC006 15/14 A2982 RMK AO2 LTG DSNT SW
                 RAB2355 SLP096 P0005 T01500144 =
2018-09-18 19:53 METAR KBGR 182353Z 03014KT 10SM OVC007 18/16 A2977 RMK AO2 LTG DSNT W RAE16 CIG
                 006V010 SLP079 OCNL LTGIC DSNT W CB DSNT W PRESENT WX VCSH P0002 60002 T01780161
                 10272 20178 53025 =
2018-09-18 19:16 METAR KBGR 182316Z COR 01011KT 8SM BKN006CB OVC025 18/18 A2974 RMK AO2 LTG DSNT
                 W RAE16 CB W-E MOV SE P0002 T01830178 =
2018-09-18 18:53 METAR KBGR 182253Z 02013G22KT 7SM -RA BKN016CB BKN021 OVC050 19/18 A2973 RMK AO2
                 WSHFT 2231 RAB36 SLP065 CB W-E MOV SE P0000 T01890178 =
2018-09-18 18:51 METAR KBGR 182251Z 02013G22KT 7SM -RA BKN019CB BKN043 OVC050 19/18 A2973 RMK AO2
                 WSHFT 2231 RAB36 CB W-E MOV SE P0000 =
2018-09-18 18:33 METAR KBGR 182233Z COR 04020KT 10SM BKN016CB BKN050 OVC110 23/19 A2972 RMK AO2
                 LTG DSNT NE PRESRR CB OHD MOV SE T02280189 =
2018-09-18 17:53 METAR KBGR 182153Z 19005KT 10SM FEW040 SCT075 BKN130 BKN200 25/19 A2969 RMK AO2
                 SLP052 CB DSNT NW-E PRESENT WX VCSH T02500194 =
2018-09-18 16:53 METAR KBGR 182053Z 18006KT 10SM FEW030 SCT130 SCT200 26/19 A2968 RMK AO2 SLP047
                 CB DSNT N-NE T02610189 56016 =
2018-09-18 15:53 METAR KBGR 181953Z 11003KT 10SM FEW025 SCT130 BKN200 26/19 A2970 RMK AO2 SLP052
                 CB DSNT NW-NE T02610189 =
2018-09-18 14:53 METAR KBGR 181853Z 14004KT 10SM SCT020 BKN130 26/19 A2971 RMK AO2 SLP056
                 T02560194 =
2018-09-18 13:53 METAR KBGR 181753Z 08003KT 10SM SCT017 25/19 A2973 RMK AO2 SLP063 T02500194
                 10250 20194 56016 =
2018-09-18 12:53 METAR KBGR 181653Z 16004KT 10SM SCT015 BKN100 24/20 A2974 RMK AO2 SLP068
                 T02390200 =
2018-09-18 11:53 METAR KBGR 181553Z 21005KT 10SM FEW015 BKN100 23/19 A2976 RMK AO2 SLP073
                 T02330194 =
2018-09-18 10:53 METAR KBGR 181453Z 19008KT 10SM BKN120 22/19 A2977 RMK AO2 SLP079 T02220194
                 58008 =
2018-09-18 09:53 METAR KBGR 181353Z 20006KT 9SM BKN120 21/18 A2979 RMK AO2 SLP083 T02110183 =
2018-09-18 08:53 METAR KBGR 181253Z 19006KT 10SM FEW030 BKN120 21/18 A2979 RMK AO2 SLP084
                 T02060183 =
2018-09-18 07:53 METAR KBGR 181153Z 19007KT 10SM FEW030 BKN120 19/18 A2980 RMK AO2 SLP087
                 T01940178 10194 20178 57006 =
2018-09-18 06:53 METAR KBGR 181053Z 21003KT 10SM FEW030 BKN150 19/17 A2981 RMK AO2 SLP090
                 T01890172 =
2018-09-18 05:53 METAR KBGR 180953Z 19005KT 10SM BKN150 18/17 A2981 RMK AO2 SLP090 T01830172 =
2018-09-18 04:53 METAR KBGR 180853Z 21005KT 10SM BKN150 18/17 A2982 RMK AO2 SLP093 T01830172
                 55006 =
2018-09-18 03:53 METAR KBGR 180753Z 19005KT 10SM BKN150 19/17 A2981 RMK AO2 SLP092 T01890172 =
2018-09-18 02:53 METAR KBGR 180653Z 20006KT 10SM BKN150 19/18 A2982 RMK AO2 SLP093 T01940178 =
2018-09-18 01:53 METAR KBGR 180553Z 21003KT 10SM BKN150 19/18 A2983 RMK AO2 SLP098 T01890178
                 10200 20189 58006 =
2018-09-18 00:53 METAR KBGR 180453Z 19004KT 10SM SCT150 19/18 A2985 RMK AO2 SLP102 T01940178
                 402830172 =
2018-09-17 23:53 METAR KBGR 180353Z COR 19006KT 10SM FEW150 19/18 A2985 RMK AO2 SLP105 T01940178
                 =

Support USWX by starting your Amazon purchase here.